CheckWX is a tool to help pilots better visualize weather data.  It is not intended as a substitute for an official pre-flight weather briefing.

18:16:54 UTC

KAWM METAR
West Memphis Municipal Airport
West Memphis, Arkansas, USA
Current

24 mins ago

KAWM 241753Z AUTO 18010KT 10SM CLR 26/18 A2990 RMK AO2 SLP121 T02560183 10256 20156 58019
Observed
Apr-24 @ 17:53 UTC
Wind
  • 180° at 10 KTS
Visibility
10 SM
Flight Rules
VFR
Cloud Levels
  • Clear skies
Temperature
26°C / 79°F
Dewpoint
18°C / 64°F
Humidity
61%
Altimeter
29.9" Hg
Pressure
1012.52 hPa
Previous

1 hour ago

KAWM 241653Z AUTO 19010G16KT 10SM CLR 24/19 A2994 RMK AO2 SLP135 T02440189
Observed
Apr-24 @ 16:53 UTC
Wind
  • 190° at 10 KTS
  • Gusting to 16 KTS
Visibility
10 SM
Flight Rules
VFR
Cloud Levels
  • Clear skies
Temperature
24°C / 75°F
Dewpoint
19°C / 66°F
Humidity
74%
Altimeter
29.94" Hg
Pressure
1013.92 hPa
Previous

2 hours ago

KAWM 241553Z AUTO 18009KT 10SM CLR 23/19 A2994 RMK AO2 SLP137 T02330189
Observed
Apr-24 @ 15:53 UTC
Wind
  • 180° at 9 KTS
Visibility
10 SM
Flight Rules
VFR
Cloud Levels
  • Clear skies
Temperature
23°C / 73°F
Dewpoint
19°C / 66°F
Humidity
78%
Altimeter
29.94" Hg
Pressure
1013.92 hPa